Time;durP1;ratioP1;P1;durP2;ratioP2;P2;SDS_P1;SDS_P2;PMS_P1;PMS_P2;Temp;Humidity;BMP_temperature;BMP_pressure;BME280_temperature;BME280_humidity;BME280_pressure;Samples;Min_cycle;Max_cycle;Signal;HPM_P1;HPM_P2
2024/02/05 00:03:49;;;;;;;69.43;12.27;;;9.40;99.90;;;;;;10617693;27;20065;-62
2024/02/05 00:08:52;;;;;;;74.78;10.77;;;9.50;99.90;;;;;;10617710;27;20047;-61
2024/02/05 00:13:55;;;;;;;66.18;10.18;;;9.30;99.90;;;;;;10615846;27;20173;-62
2024/02/05 00:18:57;;;;;;;56.60;9.05;;;9.40;99.90;;;;;;10618627;27;20142;-62
2024/02/05 00:24:00;;;;;;;66.32;10.73;;;9.30;99.90;;;;;;10619138;27;20042;-61
2024/02/05 00:29:05;;;;;;;50.13;9.40;;;9.40;99.90;;;;;;10619783;27;20074;-61
2024/02/05 00:34:07;;;;;;;45.78;7.85;;;9.30;99.90;;;;;;10632227;27;20123;-61
2024/02/05 00:39:10;;;;;;;60.00;9.38;;;9.70;99.90;;;;;;10630298;27;20177;-61
2024/02/05 00:44:13;;;;;;;56.00;12.30;;;9.50;99.90;;;;;;10631603;27;20050;-60
2024/02/05 00:49:15;;;;;;;51.58;8.80;;;9.40;99.90;;;;;;10626576;27;20047;-60
2024/02/05 00:54:17;;;;;;;60.28;8.35;;;9.30;99.90;;;;;;10629702;27;20046;-61
2024/02/05 00:59:21;;;;;;;89.60;13.85;;;9.10;99.90;;;;;;10633776;27;20077;-61
2024/02/05 01:04:23;;;;;;;68.03;9.98;;;9.20;99.90;;;;;;10632324;27;20047;-60
2024/02/05 01:09:25;;;;;;;56.90;8.15;;;9.30;99.90;;;;;;10638876;27;20074;-61
2024/02/05 01:14:29;;;;;;;59.83;11.68;;;9.20;99.90;;;;;;10632118;27;20059;-59
2024/02/05 01:19:31;;;;;;;71.40;12.35;;;9.30;99.90;;;;;;10635870;27;20183;-60
2024/02/05 01:24:33;;;;;;;59.75;11.65;;;9.10;99.90;;;;;;10634794;27;20053;-61
2024/02/05 01:29:36;;;;;;;51.03;8.55;;;9.20;99.90;;;;;;10635299;27;20070;-62
2024/02/05 01:34:39;;;;;;;54.15;9.60;;;9.50;99.90;;;;;;10632287;27;20046;-60
2024/02/05 01:39:41;;;;;;;62.00;10.98;;;9.10;99.90;;;;;;10639143;27;20049;-60
2024/02/05 01:44:44;;;;;;;66.75;10.93;;;9.10;99.90;;;;;;10634882;27;20061;-60
2024/02/05 01:49:48;;;;;;;69.80;8.90;;;9.10;99.90;;;;;;10634392;27;20050;-62
2024/02/05 01:54:51;;;;;;;57.42;7.75;;;9.10;99.90;;;;;;10629998;27;20051;-62
2024/02/05 01:59:55;;;;;;;34.53;8.60;;;9.00;99.90;;;;;;10635944;27;20141;-62
2024/02/05 02:04:59;;;;;;;65.43;11.52;;;9.20;99.90;;;;;;10631938;27;20057;-62
2024/02/05 02:10:01;;;;;;;61.40;11.45;;;8.90;99.90;;;;;;10632922;27;20083;-61
2024/02/05 02:15:05;;;;;;;82.60;12.00;;;8.90;99.90;;;;;;10630421;27;20561;-61
2024/02/05 02:20:09;;;;;;;54.65;9.45;;;8.70;99.90;;;;;;10634498;27;20638;-60
2024/02/05 02:25:13;;;;;;;69.60;12.20;;;8.80;99.90;;;;;;10631073;27;20057;-61
2024/02/05 02:30:19;;;;;;;54.40;10.60;;;8.70;99.90;;;;;;10642463;27;20061;-61
2024/02/05 02:35:27;;;;;;;46.65;8.70;;;8.70;99.90;;;;;;10628967;27;20062;-61
2024/02/05 02:40:33;;;;;;;71.68;11.13;;;8.90;99.90;;;;;;10635200;27;20246;-61
2024/02/05 02:45:35;;;;;;;47.28;10.07;;;8.60;99.90;;;;;;10630816;27;20097;-61
2024/02/05 02:50:37;;;;;;;57.73;9.97;;;8.50;99.90;;;;;;10623941;27;20054;-61
2024/02/05 02:55:40;;;;;;;77.63;9.27;;;8.60;99.90;;;;;;10627911;27;20639;-62
2024/02/05 03:00:42;;;;;;;75.80;12.52;;;8.60;99.90;;;;;;10633845;27;20046;-61
2024/02/05 03:05:45;;;;;;;48.15;8.65;;;8.50;99.90;;;;;;10625778;27;20050;-61
2024/02/05 03:10:48;;;;;;;62.15;11.15;;;8.60;99.90;;;;;;10631587;27;20390;-60
2024/02/05 03:15:50;;;;;;;69.97;11.30;;;8.60;99.90;;;;;;10637549;27;20123;-62
2024/02/05 03:20:52;;;;;;;42.43;7.93;;;8.70;99.90;;;;;;10635510;27;20145;-62
2024/02/05 03:25:56;;;;;;;55.33;8.75;;;8.70;99.90;;;;;;10630514;27;20080;-61
2024/02/05 03:30:58;;;;;;;53.35;7.28;;;8.60;99.90;;;;;;10625224;27;20046;-62
2024/02/05 03:36:00;;;;;;;60.05;8.18;;;8.60;99.90;;;;;;10629508;27;20129;-62
2024/02/05 03:41:04;;;;;;;66.95;9.25;;;8.60;99.90;;;;;;10624179;27;20046;-62
2024/02/05 03:46:06;;;;;;;85.75;14.50;;;8.70;99.90;;;;;;10633872;27;20871;-62
2024/02/05 03:51:09;;;;;;;59.08;9.43;;;8.50;99.90;;;;;;10631959;27;20103;-62
2024/02/05 03:56:12;;;;;;;93.82;11.75;;;8.60;99.90;;;;;;10624821;27;20670;-62
2024/02/05 04:15:32;;;;;;;66.35;10.65;;;8.40;99.90;;;;;;10599199;27;20130;-62
2024/02/05 04:20:34;;;;;;;45.75;8.85;;;8.40;99.90;;;;;;10606535;27;20079;-59
2024/02/05 04:25:36;;;;;;;57.28;9.20;;;8.40;99.90;;;;;;10610552;27;20051;-60
2024/02/05 04:30:41;;;;;;;47.05;10.40;;;8.50;99.90;;;;;;10607786;27;20078;-60
2024/02/05 04:35:43;;;;;;;53.55;9.98;;;8.60;99.90;;;;;;10607423;27;20887;-61
2024/02/05 04:40:45;;;;;;;39.83;6.55;;;8.50;99.90;;;;;;10611763;27;20177;-60
2024/02/05 04:45:48;;;;;;;48.38;7.95;;;8.50;99.90;;;;;;10618417;27;20057;-60
2024/02/05 04:50:50;;;;;;;63.92;11.48;;;8.30;99.90;;;;;;10611854;27;20236;-60
2024/02/05 04:55:52;;;;;;;55.42;8.18;;;8.40;99.90;;;;;;10607659;27;20618;-60
2024/02/05 05:00:56;;;;;;;34.70;6.28;;;8.40;99.90;;;;;;10606543;27;20054;-61
2024/02/05 05:05:58;;;;;;;63.28;9.32;;;8.80;99.90;;;;;;10613650;27;20578;-59
2024/02/05 05:11:00;;;;;;;47.00;8.60;;;8.60;99.90;;;;;;10613386;27;20082;-61
2024/02/05 05:16:03;;;;;;;77.85;9.55;;;8.70;99.90;;;;;;10609622;27;20054;-62
2024/02/05 05:21:06;;;;;;;56.47;11.57;;;8.60;99.90;;;;;;10610147;27;20057;-60
2024/02/05 05:26:08;;;;;;;55.33;9.32;;;8.40;99.90;;;;;;10580101;27;20054;-61
2024/02/05 05:31:16;;;;;;;47.00;9.05;;;8.50;99.90;;;;;;10576516;27;20788;-61
2024/02/05 05:36:18;;;;;;;65.63;10.30;;;8.40;99.90;;;;;;10575657;27;20047;-60
2024/02/05 05:41:20;;;;;;;52.22;8.43;;;8.50;99.90;;;;;;10578429;27;20079;-60
2024/02/05 05:46:23;;;;;;;57.17;8.48;;;8.60;99.90;;;;;;10576655;27;21374;-60
2024/02/05 05:51:26;;;;;;;42.88;7.60;;;8.60;99.90;;;;;;10575072;27;20055;-62
2024/02/05 05:56:28;;;;;;;52.87;6.80;;;8.60;99.90;;;;;;10576838;27;20092;-61
2024/02/05 06:01:35;;;;;;;53.23;8.03;;;8.60;99.90;;;;;;10576009;27;20892;-61
2024/02/05 06:06:37;;;;;;;52.17;9.38;;;8.50;99.90;;;;;;10567343;27;20047;-61
2024/02/05 06:11:39;;;;;;;38.10;7.50;;;8.50;99.90;;;;;;10570811;27;20223;-60
2024/02/05 06:16:42;;;;;;;50.35;6.78;;;8.80;99.90;;;;;;10572688;27;20070;-61
2024/02/05 06:21:44;;;;;;;74.88;11.82;;;8.50;99.90;;;;;;10575406;27;20558;-60
2024/02/05 06:26:47;;;;;;;53.30;9.65;;;8.70;99.90;;;;;;10573474;27;20704;-61
2024/02/05 06:31:51;;;;;;;75.40;12.43;;;8.50;99.90;;;;;;10575336;27;21510;-61
2024/02/05 06:36:53;;;;;;;78.50;13.30;;;8.60;99.90;;;;;;10574092;27;20069;-60
2024/02/05 06:41:55;;;;;;;84.80;15.70;;;8.40;99.90;;;;;;10575185;27;20822;-62
2024/02/05 06:47:00;;;;;;;84.90;15.15;;;8.40;99.90;;;;;;10567460;27;20047;-62
2024/02/05 06:52:03;;;;;;;59.72;11.00;;;8.30;99.90;;;;;;10569870;27;20894;-63
2024/02/05 06:57:05;;;;;;;59.30;11.15;;;8.30;99.90;;;;;;10567106;27;20062;-62
2024/02/05 07:02:09;;;;;;;78.77;13.37;;;8.30;99.90;;;;;;10567317;27;20066;-59
2024/02/05 07:07:11;;;;;;;70.13;11.32;;;8.50;99.90;;;;;;10560250;27;20202;-62
2024/02/05 07:12:13;;;;;;;60.08;11.40;;;8.60;99.90;;;;;;10569189;27;20078;-62
2024/02/05 07:17:17;;;;;;;55.55;12.30;;;8.50;99.90;;;;;;10565984;27;20055;-62
2024/02/05 07:22:19;;;;;;;65.00;12.25;;;8.60;99.90;;;;;;10566972;27;20039;-60
2024/02/05 07:27:23;;;;;;;75.72;15.88;;;8.20;99.90;;;;;;10566563;27;20055;-61
2024/02/05 07:32:26;;;;;;;71.38;11.07;;;8.50;99.90;;;;;;10565637;27;20798;-61
2024/02/05 07:37:28;;;;;;;73.30;13.30;;;8.70;99.90;;;;;;10564051;27;20215;-60
2024/02/05 07:42:31;;;;;;;66.63;9.80;;;8.40;99.90;;;;;;10566430;27;20164;-60
2024/02/05 07:47:35;;;;;;;95.78;14.77;;;8.60;99.90;;;;;;10565617;27;20047;-60
2024/02/05 07:52:38;;;;;;;65.63;11.35;;;8.40;99.90;;;;;;10562827;27;20062;-64
2024/02/05 07:57:39;;;;;;;77.27;15.03;;;8.60;99.90;;;;;;10554252;27;20058;-61
2024/02/05 08:02:43;;;;;;;57.60;9.68;;;8.40;99.90;;;;;;10561415;27;20154;-62
2024/02/05 08:07:45;;;;;;;71.97;11.70;;;8.70;99.90;;;;;;10564518;27;20145;-60
2024/02/05 08:12:47;;;;;;;91.40;15.50;;;8.70;99.90;;;;;;10564002;27;20052;-61
2024/02/05 08:17:51;;;;;;;70.18;12.27;;;8.50;99.90;;;;;;10563174;28;20083;-61
2024/02/05 08:22:54;;;;;;;69.55;10.75;;;8.80;99.90;;;;;;10566567;27;20192;-59
2024/02/05 08:27:56;;;;;;;81.63;12.38;;;8.70;99.90;;;;;;10562288;28;20082;-63
2024/02/05 08:33:00;;;;;;;80.13;14.13;;;8.70;99.90;;;;;;10559534;28;21067;-59
2024/02/05 08:38:02;;;;;;;69.82;12.40;;;8.80;99.90;;;;;;10570859;27;20047;-60
2024/02/05 08:43:05;;;;;;;81.15;15.90;;;8.70;99.90;;;;;;10568203;28;20055;-62
2024/02/05 08:48:08;;;;;;;83.90;16.37;;;8.70;99.90;;;;;;10564306;28;20060;-62
2024/02/05 08:53:11;;;;;;;68.70;9.05;;;8.60;99.90;;;;;;10560546;27;20143;-62
2024/02/05 08:58:13;;;;;;;69.30;10.53;;;9.00;99.90;;;;;;10570616;27;20894;-59
2024/02/05 09:03:16;;;;;;;80.77;11.40;;;8.70;99.90;;;;;;10578972;27;20046;-62
2024/02/05 09:08:18;;;;;;;73.63;15.00;;;8.80;99.90;;;;;;10577335;27;20188;-60
2024/02/05 09:13:20;;;;;;;53.95;9.70;;;9.00;99.90;;;;;;10575865;27;20138;-60
2024/02/05 09:18:24;;;;;;;66.05;9.82;;;8.90;99.90;;;;;;10574593;27;20084;-62
2024/02/05 09:23:26;;;;;;;76.28;10.20;;;9.30;99.90;;;;;;10575335;27;20673;-59
2024/02/05 09:28:28;;;;;;;65.35;12.25;;;8.90;99.90;;;;;;10570479;27;20225;-60
2024/02/05 09:33:32;;;;;;;63.05;10.60;;;8.80;99.90;;;;;;10572664;27;20123;-58
2024/02/05 09:38:36;;;;;;;70.03;14.00;;;8.80;99.90;;;;;;10568864;27;20082;-58
2024/02/05 09:43:39;;;;;;;73.32;11.73;;;8.90;99.90;;;;;;10574849;27;20081;-59
2024/02/05 09:48:44;;;;;;;57.17;9.52;;;9.10;99.90;;;;;;10572575;27;20054;-60
2024/02/05 09:53:47;;;;;;;87.72;14.43;;;8.90;99.90;;;;;;10572039;27;20125;-59
2024/02/05 09:58:49;;;;;;;68.35;10.38;;;8.90;99.90;;;;;;10572689;27;20518;-58
2024/02/05 10:03:54;;;;;;;63.50;10.88;;;9.10;99.90;;;;;;10572452;27;20054;-59
2024/02/05 10:09:00;;;;;;;50.53;8.82;;;9.20;99.90;;;;;;10572236;27;20050;-58
2024/02/05 10:14:05;;;;;;;60.25;10.68;;;9.10;99.90;;;;;;10567901;27;20043;-60
2024/02/05 10:19:08;;;;;;;68.55;10.85;;;9.10;99.90;;;;;;10571685;27;20093;-59
2024/02/05 10:24:14;;;;;;;61.13;11.23;;;9.20;99.90;;;;;;10569924;27;20405;-60
2024/02/05 10:29:17;;;;;;;67.97;13.25;;;9.10;99.90;;;;;;10572116;27;20142;-58
2024/02/05 10:34:22;;;;;;;66.07;12.07;;;9.20;99.90;;;;;;10568653;27;20180;-61
2024/02/05 10:39:26;;;;;;;60.38;10.30;;;9.20;99.90;;;;;;10571073;27;20055;-60
2024/02/05 10:44:28;;;;;;;71.45;14.75;;;9.30;99.90;;;;;;10570209;27;20630;-61
2024/02/05 10:49:31;;;;;;;99.65;17.45;;;9.20;99.90;;;;;;10570627;27;20098;-60
2024/02/05 10:54:34;;;;;;;72.07;13.77;;;9.40;99.90;;;;;;10569855;27;20158;-59
2024/02/05 10:59:36;;;;;;;54.83;11.30;;;9.70;99.90;;;;;;10568421;27;20050;-59
2024/02/05 11:04:40;;;;;;;60.92;12.88;;;9.70;99.90;;;;;;10568336;27;20043;-59
2024/02/05 11:09:43;;;;;;;64.68;15.82;;;9.60;99.90;;;;;;10564256;27;20063;-59
2024/02/05 11:14:47;;;;;;;75.03;12.30;;;9.70;99.90;;;;;;10566185;27;20055;-61
2024/02/05 11:19:52;;;;;;;65.25;11.75;;;9.90;99.90;;;;;;10570127;27;20051;-60
2024/02/05 11:24:54;;;;;;;76.40;13.80;;;9.80;99.90;;;;;;10568207;27;20046;-61
2024/02/05 11:29:56;;;;;;;55.15;9.57;;;9.80;99.90;;;;;;10568168;27;20043;-61
2024/02/05 11:35:00;;;;;;;76.90;13.00;;;9.90;99.90;;;;;;10565318;27;20051;-59
2024/02/05 11:40:03;;;;;;;62.30;12.82;;;9.60;99.90;;;;;;10568008;27;20051;-59
2024/02/05 11:45:06;;;;;;;56.30;9.98;;;9.80;99.90;;;;;;10569045;27;20059;-60
2024/02/05 11:50:11;;;;;;;56.22;10.75;;;9.70;99.90;;;;;;10569032;27;20160;-59
2024/02/05 11:55:16;;;;;;;83.00;16.20;;;9.70;99.90;;;;;;10567843;27;20422;-59
2024/02/05 12:00:19;;;;;;;66.15;12.57;;;9.50;99.90;;;;;;10565290;27;20148;-60
2024/02/05 12:05:24;;;;;;;74.47;8.77;;;9.70;99.90;;;;;;10564450;27;20074;-62
2024/02/05 12:10:27;;;;;;;80.18;15.50;;;9.70;99.90;;;;;;10567393;27;20134;-59
2024/02/05 12:15:31;;;;;;;38.50;7.97;;;9.50;99.90;;;;;;10480709;28;20075;-61
2024/02/05 12:20:34;;;;;;;61.45;10.50;;;9.80;99.90;;;;;;10484037;28;20063;-61
2024/02/05 12:25:36;;;;;;;;;;;9.40;99.90;;;;;;10482025;28;20728;-61
2024/02/05 12:30:38;;;;;;;39.38;5.78;;;9.60;99.90;;;;;;10525257;28;20872;-62
2024/02/05 12:35:43;;;;;;;61.75;11.93;;;9.80;99.90;;;;;;10529820;27;20075;-61
2024/02/05 12:40:45;;;;;;;49.33;8.77;;;9.70;99.90;;;;;;10530632;27;20070;-61
2024/02/05 12:45:47;;;;;;;45.75;8.80;;;9.70;99.90;;;;;;10538806;27;20090;-61
2024/02/05 12:50:53;;;;;;;39.60;7.67;;;9.70;99.90;;;;;;10511350;28;20058;-61
2024/02/05 12:55:57;;;;;;;50.78;7.82;;;9.80;99.90;;;;;;10531526;27;20044;-62
2024/02/05 13:00:59;;;;;;;56.33;8.10;;;9.80;99.90;;;;;;10535540;27;20089;-62
2024/02/05 13:06:02;;;;;;;51.38;7.00;;;9.80;99.90;;;;;;10527338;27;20082;-60
2024/02/05 13:11:06;;;;;;;47.13;8.43;;;10.00;99.90;;;;;;10529717;27;20056;-62
2024/02/05 13:16:08;;;;;;;45.85;6.35;;;10.00;99.90;;;;;;10567930;27;20128;-62
2024/02/05 13:21:11;;;;;;;45.45;6.50;;;10.00;99.90;;;;;;10578030;27;20079;-61
2024/02/05 13:26:13;;;;;;;33.97;9.02;;;9.90;99.90;;;;;;10569430;27;20047;-62
2024/02/05 13:31:16;;;;;;;41.58;8.85;;;10.00;99.90;;;;;;10573363;27;20818;-61
2024/02/05 13:36:19;;;;;;;42.10;7.72;;;9.70;99.90;;;;;;10571564;27;20074;-62
2024/02/05 13:41:23;;;;;;;59.47;11.60;;;9.70;99.90;;;;;;10571753;27;20191;-61
2024/02/05 13:46:25;;;;;;;;;;;9.80;99.90;;;;;;10572189;27;20051;-61
2024/02/05 13:51:28;;;;;;;34.40;6.43;;;9.90;99.90;;;;;;10573116;27;19998;-62
2024/02/05 13:56:30;;;;;;;41.45;7.75;;;10.00;99.90;;;;;;10571261;27;21200;-62
2024/02/05 14:01:32;;;;;;;42.42;9.23;;;9.60;99.90;;;;;;10572088;27;20100;-60
2024/02/05 14:06:35;;;;;;;49.70;10.60;;;9.50;99.90;;;;;;10571599;27;20865;-59
2024/02/05 14:11:37;;;;;;;36.17;6.40;;;9.40;99.90;;;;;;10572855;27;20252;-60
2024/02/05 14:16:40;;;;;;;54.53;9.48;;;9.60;99.90;;;;;;10572619;27;20807;-61
2024/02/05 14:21:43;;;;;;;42.53;8.73;;;9.60;99.90;;;;;;10577013;27;20148;-61
2024/02/05 14:26:45;;;;;;;42.35;7.55;;;9.60;99.90;;;;;;10570045;27;20069;-59
2024/02/05 14:31:47;;;;;;;35.03;5.80;;;9.70;99.90;;;;;;10580096;27;20399;-60
2024/02/05 14:36:51;;;;;;;35.22;7.30;;;9.60;99.90;;;;;;10570223;27;20398;-59
2024/02/05 14:41:53;;;;;;;36.30;7.45;;;9.50;99.90;;;;;;10572182;27;20059;-60
2024/02/05 14:46:55;;;;;;;31.67;4.55;;;9.60;99.90;;;;;;10571016;27;20661;-60
2024/02/05 14:52:00;;;;;;;49.92;11.40;;;9.80;99.90;;;;;;10573400;27;20109;-61
2024/02/05 14:57:03;;;;;;;46.85;8.80;;;9.60;99.90;;;;;;10563450;27;20100;-60
2024/02/05 15:02:05;;;;;;;38.50;7.20;;;9.50;99.90;;;;;;10561216;27;20792;-60
2024/02/05 15:07:08;;;;;;;53.28;9.18;;;9.70;99.90;;;;;;10564460;27;20139;-60
2024/02/05 15:12:11;;;;;;;39.83;6.90;;;9.70;99.90;;;;;;10561216;27;20889;-61
2024/02/05 15:17:13;;;;;;;65.93;9.38;;;9.60;99.90;;;;;;10566004;27;20940;-61
2024/02/05 15:22:16;;;;;;;33.65;8.05;;;9.60;99.90;;;;;;10565985;27;20556;-61
2024/02/05 15:27:18;;;;;;;48.03;9.20;;;9.60;99.90;;;;;;10564433;27;20518;-61
2024/02/05 15:32:20;;;;;;;33.00;6.35;;;9.70;99.90;;;;;;10566813;27;20047;-59
2024/02/05 15:37:23;;;;;;;35.35;7.15;;;9.70;99.90;;;;;;10567775;27;20058;-61
2024/02/05 15:42:29;;;;;;;;;;;9.60;99.90;;;;;;10568015;27;20162;-61
2024/02/05 15:47:32;;;;;;;27.42;5.10;;;9.60;99.90;;;;;;10559215;27;19924;-59
2024/02/05 15:52:36;;;;;;;40.87;6.90;;;9.40;99.90;;;;;;10560165;27;20142;-60
2024/02/05 15:57:39;;;;;;;49.15;7.10;;;9.20;99.90;;;;;;10558121;27;20047;-61
2024/02/05 16:02:41;;;;;;;39.60;7.40;;;9.80;99.90;;;;;;10555639;27;20106;-61
2024/02/05 16:07:45;;;;;;;30.13;6.25;;;9.50;99.90;;;;;;10558502;27;20062;-61
2024/02/05 16:12:47;;;;;;;32.33;4.97;;;9.60;99.90;;;;;;10558860;27;20075;-60
2024/02/05 16:17:49;;;;;;;17.83;3.85;;;9.30;99.90;;;;;;10561290;28;20173;-61
2024/02/05 16:22:53;;;;;;;29.92;5.30;;;9.20;99.90;;;;;;10559093;28;20043;-59
2024/02/05 16:27:55;;;;;;;26.80;5.53;;;9.10;99.90;;;;;;10559895;28;20175;-60
2024/02/05 16:32:59;;;;;;;28.33;5.33;;;9.50;99.90;;;;;;10557028;28;20055;-60
2024/02/05 16:38:02;;;;;;;26.80;5.90;;;9.40;99.90;;;;;;10558945;28;20126;-60
2024/02/05 16:43:04;;;;;;;;;;;9.00;99.90;;;;;;10565809;28;20138;-61
2024/02/05 16:48:06;;;;;;;35.10;5.03;;;9.50;99.90;;;;;;10562642;28;20046;-61
2024/02/05 16:53:10;;;;;;;34.80;5.25;;;9.10;99.90;;;;;;10562573;27;20496;-61
2024/02/05 16:58:12;;;;;;;35.40;5.25;;;9.10;99.90;;;;;;10565609;28;20099;-61
2024/02/05 17:03:15;;;;;;;38.50;6.77;;;9.10;99.90;;;;;;10561950;28;20896;-61
2024/02/05 17:08:18;;;;;;;31.58;5.55;;;9.10;99.90;;;;;;10561400;28;20054;-61
2024/02/05 17:13:20;;;;;;;19.42;4.93;;;9.00;99.90;;;;;;10562146;27;20514;-59
2024/02/05 17:18:22;;;;;;;22.92;4.65;;;9.00;99.90;;;;;;10563288;27;20054;-61
2024/02/05 17:23:26;;;;;;;29.05;4.70;;;9.20;99.90;;;;;;10560287;27;20059;-61
2024/02/05 17:28:27;;;;;;;35.03;5.18;;;9.00;99.90;;;;;;10564484;27;20085;-60
2024/02/05 17:33:29;;;;;;;30.73;6.22;;;9.10;99.90;;;;;;10561725;27;20047;-59
2024/02/05 17:38:33;;;;;;;31.60;4.95;;;9.00;99.90;;;;;;10562942;27;20475;-60
2024/02/05 17:43:35;;;;;;;;;;;9.00;99.90;;;;;;10566705;27;20919;-60
2024/02/05 17:48:37;;;;;;;32.60;5.68;;;8.90;99.90;;;;;;10566440;27;20279;-60
2024/02/05 17:53:40;;;;;;;45.67;5.45;;;9.00;99.90;;;;;;10565998;27;20051;-63
2024/02/05 17:58:43;;;;;;;44.00;7.05;;;9.00;99.90;;;;;;10562111;27;20865;-64
2024/02/05 18:03:45;;;;;;;34.13;5.30;;;8.90;99.90;;;;;;10570155;27;20043;-63
2024/02/05 18:08:48;;;;;;;43.60;6.32;;;9.10;99.90;;;;;;10570313;27;20059;-63
2024/02/05 18:13:50;;;;;;;40.42;7.15;;;8.90;99.90;;;;;;10564314;27;20050;-63
2024/02/05 18:18:52;;;;;;;32.05;6.40;;;8.90;99.90;;;;;;10567230;27;20055;-62
2024/02/05 18:23:56;;;;;;;31.85;5.63;;;8.90;99.90;;;;;;10564265;27;20062;-61
2024/02/05 18:28:58;;;;;;;20.48;4.75;;;8.90;99.90;;;;;;10561970;27;20909;-62
2024/02/05 18:34:00;;;;;;;30.23;4.85;;;8.90;99.90;;;;;;10567989;27;20105;-63
2024/02/05 18:39:04;;;;;;;38.97;6.90;;;8.90;99.90;;;;;;10570031;27;20220;-65
2024/02/05 18:44:07;;;;;;;49.85;7.47;;;8.80;99.90;;;;;;10564688;27;20884;-64
2024/02/05 18:49:09;;;;;;;35.83;5.57;;;9.00;99.90;;;;;;10562195;27;20047;-64
2024/02/05 18:54:12;;;;;;;31.70;5.43;;;8.90;99.90;;;;;;10561682;27;20129;-65
2024/02/05 18:59:15;;;;;;;56.85;8.07;;;9.10;99.90;;;;;;10560504;27;20501;-65
2024/02/05 19:04:17;;;;;;;40.50;8.63;;;9.10;99.90;;;;;;10565031;27;20081;-62
2024/02/05 19:09:21;;;;;;;45.47;8.07;;;9.00;99.90;;;;;;10560644;27;20070;-61
2024/02/05 19:14:24;;;;;;;46.20;7.15;;;9.30;99.90;;;;;;10560310;27;20051;-56
2024/02/05 19:19:26;;;;;;;50.75;6.95;;;9.10;99.90;;;;;;10562136;27;20082;-60
2024/02/05 19:24:30;;;;;;;58.50;7.93;;;9.20;99.90;;;;;;10565453;27;20082;-63
2024/02/05 19:29:32;;;;;;;46.22;7.32;;;9.10;99.90;;;;;;10555893;27;20078;-63
2024/02/05 19:34:34;;;;;;;28.63;5.68;;;9.30;99.90;;;;;;10563592;27;20530;-63
2024/02/05 19:39:38;;;;;;;46.55;7.75;;;9.50;99.90;;;;;;10561621;27;20224;-64
2024/02/05 19:44:42;;;;;;;58.75;10.32;;;9.10;99.90;;;;;;10558274;27;20047;-63
2024/02/05 19:49:44;;;;;;;35.30;6.40;;;9.40;99.90;;;;;;10561243;27;20086;-63
2024/02/05 19:54:47;;;;;;;58.00;10.45;;;9.40;99.90;;;;;;10559681;27;20058;-63
2024/02/05 19:59:49;;;;;;;56.50;8.05;;;9.30;99.90;;;;;;10561736;27;21420;-63
2024/02/05 20:04:51;;;;;;;53.78;9.95;;;9.30;99.90;;;;;;10557861;27;20407;-63
2024/02/05 20:09:55;;;;;;;48.58;9.25;;;9.20;99.90;;;;;;10555732;27;20577;-63
2024/02/05 20:14:57;;;;;;;52.63;7.35;;;9.20;99.90;;;;;;10532723;28;20057;-63
2024/02/05 20:19:59;;;;;;;39.20;5.90;;;9.20;99.90;;;;;;10529661;28;20054;-64
2024/02/05 20:25:03;;;;;;;55.28;9.73;;;9.40;99.90;;;;;;10533039;28;20052;-64
2024/02/05 20:30:06;;;;;;;49.85;8.02;;;9.20;99.90;;;;;;10528579;28;20115;-63
2024/02/05 20:35:09;;;;;;;55.83;9.13;;;9.20;99.90;;;;;;10525066;28;20103;-65
2024/02/05 20:40:12;;;;;;;37.00;7.20;;;9.20;99.90;;;;;;10526158;28;20100;-62
2024/02/05 20:45:15;;;;;;;31.00;6.40;;;9.20;99.90;;;;;;10526267;28;20300;-63
2024/02/05 20:50:19;;;;;;;38.28;5.88;;;9.40;99.90;;;;;;10521566;28;20982;-65
2024/02/05 20:55:23;;;;;;;42.30;8.10;;;9.30;99.90;;;;;;10532764;27;20058;-63
2024/02/05 21:00:25;;;;;;;40.67;6.90;;;9.20;99.90;;;;;;10542764;27;20052;-64
2024/02/05 21:05:27;;;;;;;38.23;6.97;;;9.30;99.90;;;;;;10542504;27;20052;-64
2024/02/05 21:10:30;;;;;;;45.95;8.80;;;9.40;99.90;;;;;;10537855;27;20904;-64
2024/02/05 21:15:32;;;;;;;51.45;8.98;;;9.30;99.90;;;;;;10567928;27;20059;-64
2024/02/05 21:20:34;;;;;;;53.78;7.35;;;9.10;99.90;;;;;;10578448;27;20104;-62
2024/02/05 21:25:39;;;;;;;34.75;7.15;;;9.50;99.90;;;;;;10577470;27;20130;-63
2024/02/05 21:30:41;;;;;;;51.33;11.45;;;9.50;99.90;;;;;;10578042;27;20050;-62
2024/02/05 21:35:43;;;;;;;39.47;8.90;;;9.40;99.90;;;;;;10576063;27;20043;-63
2024/02/05 21:40:47;;;;;;;55.33;11.07;;;9.50;99.90;;;;;;10569867;27;20058;-63
2024/02/05 21:45:49;;;;;;;62.85;7.03;;;9.20;99.90;;;;;;10569080;27;20054;-64
2024/02/05 21:50:51;;;;;;;65.22;10.52;;;9.40;99.90;;;;;;10568105;27;20718;-65
2024/02/05 21:55:56;;;;;;;49.57;8.73;;;9.20;99.90;;;;;;10572998;27;20058;-64
2024/02/05 22:00:58;;;;;;;42.13;7.07;;;9.30;99.90;;;;;;10575431;27;20136;-64
2024/02/05 22:06:01;;;;;;;56.25;11.73;;;9.40;99.90;;;;;;10573888;27;20417;-64
2024/02/05 22:11:05;;;;;;;42.70;8.93;;;9.40;99.90;;;;;;10574230;27;20082;-64
2024/02/05 22:16:07;;;;;;;61.30;10.02;;;9.40;99.90;;;;;;10574129;27;20051;-64
2024/02/05 22:21:09;;;;;;;45.57;8.60;;;9.40;99.90;;;;;;10567076;27;20792;-63
2024/02/05 22:26:12;;;;;;;57.50;9.02;;;9.30;99.90;;;;;;10569523;27;20050;-64
2024/02/05 22:31:14;;;;;;;41.97;9.32;;;9.30;99.90;;;;;;10569808;27;20681;-64
2024/02/05 22:36:17;;;;;;;47.05;9.45;;;9.30;99.90;;;;;;10573983;27;20046;-64
2024/02/05 22:41:20;;;;;;;54.85;10.95;;;9.50;99.90;;;;;;10573138;27;20058;-63
2024/02/05 22:46:22;;;;;;;63.75;11.85;;;9.40;99.90;;;;;;10564416;27;20058;-64
2024/02/05 22:51:24;;;;;;;38.72;7.13;;;9.40;99.90;;;;;;10559784;27;20086;-63
2024/02/05 22:56:27;;;;;;;56.25;11.05;;;9.70;99.90;;;;;;10566375;27;20175;-63
2024/02/05 23:01:30;;;;;;;21.98;5.53;;;9.40;99.90;;;;;;10568321;27;20871;-64
2024/02/05 23:06:32;;;;;;;50.83;9.90;;;9.80;99.90;;;;;;10567071;27;20585;-64
2024/02/05 23:11:35;;;;;;;58.20;9.80;;;9.50;99.90;;;;;;10569776;27;20152;-63
2024/02/05 23:16:37;;;;;;;44.90;8.77;;;9.70;99.90;;;;;;10565868;27;20081;-63
2024/02/05 23:21:39;;;;;;;44.63;10.15;;;9.60;99.90;;;;;;10569904;27;20086;-64
2024/02/05 23:26:43;;;;;;;54.30;11.83;;;9.50;99.90;;;;;;10566548;27;20047;-63
2024/02/05 23:31:46;;;;;;;39.92;9.63;;;9.60;99.90;;;;;;10566550;27;20055;-62
2024/02/05 23:36:48;;;;;;;57.40;11.05;;;9.50;99.90;;;;;;10565220;27;20066;-62
2024/02/05 23:41:52;;;;;;;47.45;8.05;;;9.50;99.90;;;;;;10562960;27;20054;-63
2024/02/05 23:46:54;;;;;;;44.97;7.25;;;9.80;99.90;;;;;;10561687;27;20371;-63
2024/02/05 23:51:56;;;;;;;57.95;10.02;;;9.60;99.90;;;;;;10564048;27;20051;-64
2024/02/05 23:56:59;;;;;;;44.78;8.52;;;9.60;99.90;;;;;;10561068;27;20859;-62
